createdAt,value
2019-02-23T00:00:01.618Z,52.45
2019-02-23T00:02:29.883Z,49.13
2019-02-23T00:04:58.153Z,56.55
2019-02-23T00:07:26.516Z,57.60
2019-02-23T00:09:54.777Z,46.15
2019-02-23T00:12:23.096Z,48.80
2019-02-23T00:14:51.362Z,67.80
2019-02-23T00:17:19.644Z,110.65
2019-02-23T00:19:47.907Z,99.30
2019-02-23T00:22:16.203Z,86.42
2019-02-23T00:24:44.497Z,87.02
2019-02-23T00:27:12.760Z,85.67
2019-02-23T00:29:41.058Z,89.52
2019-02-23T00:32:09.361Z,75.35
2019-02-23T00:34:37.625Z,90.45
2019-02-23T00:37:05.884Z,77.37
2019-02-23T00:39:34.162Z,105.45
2019-02-23T00:42:02.425Z,91.02
2019-02-23T00:44:30.708Z,93.15
2019-02-23T00:47:00.007Z,88.78
2019-02-23T00:49:35.879Z,83.37
2019-02-23T00:54:46.786Z,76.57
2019-02-23T00:57:15.050Z,73.02
2019-02-23T00:59:43.308Z,70.32
2019-02-23T01:02:12.117Z,85.45
2019-02-23T01:04:40.545Z,87.78
2019-02-23T01:07:08.837Z,83.40
2019-02-23T01:09:37.102Z,79.72
2019-02-23T01:12:05.394Z,74.70
2019-02-23T01:14:33.655Z,73.95
2019-02-23T01:17:01.939Z,72.20
2019-02-23T01:19:30.236Z,74.55
2019-02-23T01:21:58.500Z,60.08
2019-02-23T01:24:26.790Z,45.12
2019-02-23T01:26:55.049Z,43.52
2019-02-23T01:29:23.345Z,73.52
2019-02-23T01:31:51.603Z,68.42
2019-02-23T01:34:19.880Z,71.35
2019-02-23T01:36:48.139Z,80.97
2019-02-23T01:39:16.441Z,96.80
2019-02-23T01:41:44.723Z,83.07
2019-02-23T01:44:12.983Z,72.05
2019-02-23T01:46:41.259Z,70.22
2019-02-23T01:49:09.532Z,56.18
2019-02-23T01:51:37.803Z,55.60
2019-02-23T01:54:06.068Z,48.13
2019-02-23T01:56:34.355Z,44.38
2019-02-23T01:59:02.611Z,50.43
2019-02-23T02:01:30.909Z,46.75
2019-02-23T02:03:59.171Z,43.20
2019-02-23T02:06:27.465Z,46.90
2019-02-23T02:08:55.756Z,46.60
2019-02-23T02:11:24.421Z,47.25
2019-02-23T02:13:52.750Z,48.23
2019-02-23T02:16:21.030Z,46.75
2019-02-23T02:18:49.285Z,47.75
2019-02-23T02:21:19.005Z,43.00
2019-02-23T02:23:47.301Z,41.48
2019-02-23T02:26:15.672Z,40.12
2019-02-23T02:28:43.937Z,45.43
2019-02-23T02:31:12.239Z,36.35
2019-02-23T02:34:02.109Z,42.67
2019-02-23T02:36:30.384Z,36.23
2019-02-23T02:38:58.684Z,36.23
2019-02-23T02:41:26.954Z,39.40
2019-02-23T02:43:55.229Z,38.10
2019-02-23T02:46:23.487Z,42.08
2019-02-23T02:48:51.761Z,44.10
2019-02-23T02:51:20.026Z,43.42
2019-02-23T02:53:48.350Z,61.13
2019-02-23T02:56:16.613Z,96.63
2019-02-23T02:58:44.941Z,95.67
2019-02-23T03:01:13.224Z,100.53
2019-02-23T03:03:41.524Z,105.65
2019-02-23T03:06:09.827Z,121.13
2019-02-23T03:08:38.090Z,111.70
2019-02-23T03:11:06.382Z,79.55
2019-02-23T03:13:34.679Z,63.63
2019-02-23T03:16:02.940Z,128.38
2019-02-23T03:18:31.246Z,188.75
2019-02-23T03:20:59.523Z,211.07
2019-02-23T03:23:27.781Z,200.00
2019-02-23T03:25:56.082Z,138.22
2019-02-23T03:28:24.364Z,113.45
2019-02-23T03:30:52.633Z,82.97
2019-02-23T03:33:20.943Z,67.95
2019-02-23T03:35:49.273Z,56.48
2019-02-23T03:38:17.534Z,40.88
2019-02-23T03:40:45.804Z,43.40
2019-02-23T03:43:14.069Z,46.18
2019-02-23T03:45:42.362Z,39.35
2019-02-23T03:48:10.624Z,38.38
2019-02-23T03:50:48.717Z,41.42
2019-02-23T03:53:08.944Z,38.40
2019-02-23T03:55:37.218Z,40.40
2019-02-23T03:58:05.510Z,36.68
2019-02-23T04:00:33.772Z,33.33
2019-02-23T04:03:02.047Z,38.58
2019-02-23T04:05:30.344Z,32.85
2019-02-23T04:07:58.603Z,41.55
2019-02-23T04:10:26.908Z,41.98
2019-02-23T04:12:55.207Z,35.80
2019-02-23T04:15:23.483Z,40.17
2019-02-23T04:17:51.771Z,38.65
2019-02-23T04:20:20.067Z,37.88
2019-02-23T04:22:48.344Z,39.20
2019-02-23T04:25:16.623Z,41.23
2019-02-23T04:27:45.284Z,42.03
2019-02-23T04:30:13.544Z,33.95
2019-02-23T04:32:41.837Z,39.30
2019-02-23T04:35:10.105Z,41.63
2019-02-23T04:37:38.411Z,33.75
2019-02-23T04:40:07.344Z,39.18
2019-02-23T04:42:35.604Z,36.45
2019-02-23T04:45:04.541Z,38.45
2019-02-23T04:47:32.796Z,40.03
2019-02-23T04:50:01.091Z,44.03
2019-02-23T04:52:29.350Z,45.35
2019-02-23T04:54:57.659Z,46.53
2019-02-23T04:57:25.907Z,54.25
2019-02-23T04:59:54.198Z,65.10
2019-02-23T05:02:22.524Z,62.27
2019-02-23T05:04:50.802Z,49.05
2019-02-23T05:07:19.053Z,59.75
2019-02-23T05:09:47.323Z,44.48
2019-02-23T05:12:15.628Z,65.52
2019-02-23T05:14:43.894Z,75.92
2019-02-23T05:17:12.197Z,83.72
2019-02-23T05:19:40.462Z,130.37
2019-02-23T05:22:08.729Z,127.60
2019-02-23T05:24:37.037Z,137.35
2019-02-23T05:27:05.333Z,174.15
2019-02-23T05:29:33.598Z,119.22
2019-02-23T05:32:01.896Z,98.62
2019-02-23T05:34:30.175Z,101.72
2019-02-23T05:36:58.434Z,94.58
2019-02-23T05:39:26.710Z,98.00
2019-02-23T05:41:54.984Z,133.90
2019-02-23T05:44:23.245Z,95.20
2019-02-23T05:46:51.543Z,111.68
2019-02-23T05:49:19.837Z,120.17
2019-02-23T05:51:48.105Z,109.48
2019-02-23T05:54:16.389Z,99.28
2019-02-23T05:56:44.662Z,105.78
2019-02-23T05:59:12.938Z,96.30
2019-02-23T06:01:41.247Z,108.10
2019-02-23T06:04:09.521Z,145.12
2019-02-23T06:06:37.819Z,164.57
2019-02-23T06:09:06.115Z,142.28
2019-02-23T06:11:36.643Z,100.07
2019-02-23T06:14:04.919Z,105.33
2019-02-23T06:16:33.205Z,120.53
2019-02-23T06:19:01.469Z,139.07
2019-02-23T06:21:30.279Z,116.12
2019-02-23T06:23:58.736Z,124.67
2019-02-23T06:26:27.342Z,207.77
2019-02-23T06:28:55.625Z,217.50
2019-02-23T06:31:23.977Z,222.88
2019-02-23T06:33:52.263Z,165.40
2019-02-23T06:36:20.530Z,135.30
2019-02-23T06:38:48.830Z,103.70
2019-02-23T06:41:17.093Z,95.45
2019-02-23T06:43:45.370Z,79.15
2019-02-23T06:46:13.663Z,90.75
2019-02-23T06:48:41.926Z,94.20
2019-02-23T06:51:10.223Z,115.12
2019-02-23T06:53:38.486Z,94.45
2019-02-23T06:56:06.769Z,101.75
2019-02-23T06:58:35.033Z,94.60
2019-02-23T07:01:03.311Z,107.20
2019-02-23T07:03:31.611Z,99.13
2019-02-23T07:05:59.874Z,107.97
2019-02-23T07:08:28.152Z,88.55
2019-02-23T07:10:56.433Z,115.47
2019-02-23T07:13:24.708Z,128.87
2019-02-23T07:15:53.573Z,101.60
2019-02-23T07:18:21.838Z,96.53
2019-02-23T07:20:50.132Z,109.75
2019-02-23T07:23:18.440Z,102.67
2019-02-23T07:25:46.711Z,101.10
2019-02-23T07:28:15.040Z,94.95
2019-02-23T07:30:43.331Z,99.92
2019-02-23T07:33:11.653Z,94.65
2019-02-23T07:35:39.940Z,97.82
2019-02-23T07:38:08.204Z,94.37
2019-02-23T07:40:36.509Z,109.70
2019-02-23T07:43:04.771Z,99.70
2019-02-23T07:45:33.039Z,103.40
2019-02-23T07:48:01.333Z,101.35
2019-02-23T07:50:29.602Z,99.15
2019-02-23T07:52:57.883Z,100.38
2019-02-23T07:55:26.145Z,102.35
2019-02-23T07:57:54.440Z,94.67
2019-02-23T08:00:22.701Z,95.05
2019-02-23T08:02:50.992Z,98.65
2019-02-23T08:05:19.273Z,105.20
2019-02-23T08:07:47.567Z,87.67
2019-02-23T08:10:15.829Z,84.72
2019-02-23T08:12:44.112Z,91.20
2019-02-23T08:15:12.671Z,106.63
2019-02-23T08:17:40.952Z,131.20
2019-02-23T08:20:11.158Z,113.47
2019-02-23T08:22:39.452Z,68.00
2019-02-23T08:25:10.075Z,66.20
2019-02-23T08:27:38.339Z,71.67
2019-02-23T08:30:10.280Z,74.45
2019-02-23T08:32:38.545Z,62.35
2019-02-23T08:35:07.745Z,70.08
2019-02-23T08:37:36.057Z,65.42
2019-02-23T08:40:07.300Z,70.78
2019-02-23T08:42:35.601Z,76.67
2019-02-23T08:45:03.869Z,94.58
2019-02-23T08:47:32.158Z,80.35
2019-02-23T08:50:00.422Z,75.47
2019-02-23T08:52:28.717Z,88.97
2019-02-23T08:54:56.992Z,95.22
2019-02-23T08:57:25.297Z,86.82
2019-02-23T08:59:53.562Z,84.87
2019-02-23T09:02:21.824Z,80.12
2019-02-23T09:04:50.098Z,83.45
2019-02-23T09:07:18.390Z,90.03
2019-02-23T09:09:46.680Z,81.08
2019-02-23T09:12:14.944Z,59.15
2019-02-23T09:20:28.600Z,68.67
2019-02-23T09:22:59.698Z,60.70
2019-02-23T09:25:20.191Z,62.75
2019-02-23T09:27:48.455Z,42.90
2019-02-23T09:30:16.732Z,50.45
2019-02-23T09:32:44.990Z,52.67
2019-02-23T09:35:13.267Z,36.13
2019-02-23T09:37:43.119Z,91.67
2019-02-23T09:40:16.618Z,30.77
2019-02-23T09:42:44.885Z,35.13
2019-02-23T09:45:13.185Z,42.50
2019-02-23T09:47:41.444Z,45.95
2019-02-23T09:50:09.714Z,30.32
2019-02-23T09:52:37.976Z,30.27
2019-02-23T09:55:07.209Z,37.78
2019-02-23T09:57:35.468Z,29.87
2019-02-23T10:00:04.312Z,32.03
2019-02-23T10:02:32.581Z,26.02
2019-02-23T10:05:00.880Z,28.52
2019-02-23T10:07:29.151Z,31.17
2019-02-23T10:09:57.409Z,24.27
2019-02-23T10:12:25.694Z,24.50
2019-02-23T10:14:53.958Z,25.45
2019-02-23T10:17:22.249Z,25.23
2019-02-23T10:19:50.532Z,21.93
2019-02-23T10:22:18.837Z,25.80
2019-02-23T10:24:47.102Z,23.70
2019-02-23T10:27:15.398Z,31.45
2019-02-23T10:29:43.655Z,26.73
2019-02-23T10:32:11.958Z,42.13
2019-02-23T10:34:40.206Z,29.75
2019-02-23T10:37:08.495Z,46.80
2019-02-23T10:39:36.784Z,28.83
2019-02-23T10:42:05.043Z,41.48
2019-02-23T10:44:33.324Z,25.30
2019-02-23T10:47:01.591Z,32.93
2019-02-23T10:49:29.880Z,27.37
2019-02-23T10:51:58.137Z,30.35
2019-02-23T10:54:26.420Z,30.75
2019-02-23T10:56:54.708Z,36.20
2019-02-23T10:59:22.969Z,31.82
2019-02-23T11:01:51.262Z,34.75
2019-02-23T11:04:19.522Z,35.30
2019-02-23T11:06:47.824Z,33.80
2019-02-23T11:09:17.728Z,25.90
2019-02-23T11:11:48.385Z,14.87
2019-02-23T11:14:16.042Z,27.10
2019-02-23T11:16:44.305Z,32.93
2019-02-23T11:19:12.563Z,32.30
2019-02-23T11:21:40.845Z,37.45
2019-02-23T11:24:09.104Z,38.00
2019-02-23T11:26:37.396Z,36.98
2019-02-23T11:29:05.657Z,83.95
2019-02-23T11:31:33.954Z,33.53
2019-02-23T11:34:02.230Z,68.65
2019-02-23T11:36:30.503Z,37.88
2019-02-23T11:38:58.800Z,54.38
2019-02-23T11:41:27.062Z,34.63
2019-02-23T11:43:55.334Z,44.80
2019-02-23T11:46:23.640Z,33.08
2019-02-23T11:48:51.907Z,29.23
2019-02-23T11:51:20.186Z,29.00
2019-02-23T11:53:54.980Z,33.42
2019-02-23T11:56:18.457Z,30.37
2019-02-23T11:58:46.717Z,33.73
2019-02-23T12:01:15.014Z,32.53
2019-02-23T12:03:43.269Z,32.15
2019-02-23T12:06:11.573Z,64.15
2019-02-23T12:08:39.833Z,65.62
2019-02-23T12:11:08.096Z,45.50
2019-02-23T12:13:36.381Z,80.10
2019-02-23T12:16:04.659Z,82.35
2019-02-23T12:18:34.592Z,55.78
2019-02-23T12:21:02.889Z,43.25
2019-02-23T12:23:31.163Z,37.93
2019-02-23T12:25:59.454Z,39.95
2019-02-23T12:28:27.713Z,33.85
2019-02-23T12:30:56.007Z,47.70
2019-02-23T12:33:24.272Z,45.15
2019-02-23T12:35:52.568Z,35.38
2019-02-23T12:38:20.825Z,31.45
2019-02-23T12:40:49.123Z,40.25
2019-02-23T12:43:17.387Z,44.13
2019-02-23T12:45:45.681Z,42.62
2019-02-23T12:48:13.968Z,42.08
2019-02-23T12:50:42.257Z,44.20
2019-02-23T12:53:10.516Z,46.83
2019-02-23T12:55:38.812Z,36.80
2019-02-23T12:58:07.085Z,37.40
2019-02-23T13:00:35.361Z,47.80
2019-02-23T13:03:03.656Z,43.87
2019-02-23T13:05:31.915Z,38.83
2019-02-23T13:08:00.208Z,56.02
2019-02-23T13:10:28.468Z,88.33
2019-02-23T13:13:00.030Z,52.53
2019-02-23T13:15:31.549Z,86.05
2019-02-23T13:18:03.115Z,126.53
2019-02-23T13:20:34.637Z,33.40
2019-02-23T13:23:33.541Z,48.52
2019-02-23T13:26:22.959Z,31.57
2019-02-23T13:28:57.372Z,41.18
2019-02-23T13:31:41.174Z,42.67
2019-02-23T13:34:18.521Z,50.40
2019-02-23T13:37:06.522Z,58.08
2019-02-23T13:39:40.941Z,48.25
2019-02-23T13:42:21.469Z,70.47
2019-02-23T13:45:05.219Z,37.38
2019-02-23T13:47:42.844Z,42.75
2019-02-23T13:50:29.551Z,41.48
2019-02-23T13:53:10.102Z,59.55
2019-02-23T13:55:56.716Z,74.62
2019-02-23T13:58:34.119Z,134.80
2019-02-23T14:01:21.699Z,45.10
2019-02-23T14:03:58.982Z,43.42
2019-02-23T14:06:58.727Z,38.85
2019-02-23T14:09:46.857Z,42.55
2019-02-23T14:12:27.455Z,37.63
2019-02-23T14:14:58.982Z,42.35
2019-02-23T14:17:54.820Z,76.60
2019-02-23T14:20:44.510Z,105.37
2019-02-23T14:23:22.104Z,83.78
2019-02-23T14:25:53.651Z,37.63
2019-02-23T14:28:30.814Z,38.48
2019-02-23T14:31:20.252Z,42.85
2019-02-23T14:34:00.663Z,43.10
2019-02-23T14:36:41.331Z,39.83
2019-02-23T14:39:29.622Z,44.45
2019-02-23T14:42:03.910Z,60.43
2019-02-23T14:44:51.729Z,51.75
2019-02-23T14:47:40.088Z,50.98
2019-02-23T14:50:28.345Z,55.17
2019-02-23T14:53:06.140Z,38.98
2019-02-23T14:55:55.695Z,40.03
2019-02-23T14:58:27.229Z,39.00
2019-02-23T15:01:02.792Z,41.33
2019-02-23T15:03:50.632Z,47.62
2019-02-23T15:06:49.621Z,84.25
2019-02-23T15:09:21.149Z,47.13
2019-02-23T15:11:59.509Z,62.93
2019-02-23T15:14:39.931Z,65.83
2019-02-23T15:17:27.986Z,79.80
2019-02-23T15:20:31.608Z,50.12
2019-02-23T15:23:07.043Z,60.33
2019-02-23T15:26:10.122Z,52.43
2019-02-23T15:28:56.801Z,42.35
2019-02-23T15:31:48.153Z,63.00
2019-02-23T15:34:39.298Z,67.05
2019-02-23T15:37:13.586Z,49.67
2019-02-23T15:40:00.277Z,57.88
2019-02-23T15:42:43.567Z,59.30
2019-02-23T15:45:20.893Z,99.47
2019-02-23T15:47:55.342Z,64.15
2019-02-23T15:50:23.665Z,63.60
2019-02-23T15:52:54.606Z,85.22
2019-02-23T15:55:25.955Z,91.05
2019-02-23T15:57:52.876Z,69.00
2019-02-23T16:00:21.135Z,63.50
2019-02-23T16:02:49.428Z,74.55
2019-02-23T16:05:17.730Z,75.20
2019-02-23T16:07:46.078Z,84.25
2019-02-23T16:10:16.721Z,95.47
2019-02-23T16:12:44.277Z,105.20
2019-02-23T16:15:12.568Z,93.67
2019-02-23T16:17:40.846Z,68.30
2019-02-23T16:20:09.128Z,75.62
2019-02-23T16:22:37.464Z,76.60
2019-02-23T16:25:06.271Z,94.55
2019-02-23T16:27:34.541Z,113.47
2019-02-23T16:30:05.253Z,147.00
2019-02-23T16:32:33.517Z,166.57
2019-02-23T16:35:01.817Z,157.70
2019-02-23T16:37:30.081Z,184.72
2019-02-23T16:39:58.748Z,212.80
2019-02-23T16:42:26.993Z,245.50
2019-02-23T16:44:55.292Z,195.97
2019-02-23T16:47:23.556Z,128.32
2019-02-23T16:49:53.488Z,127.80
2019-02-23T16:52:21.877Z,117.87
2019-02-23T16:54:50.144Z,111.05
2019-02-23T16:57:18.406Z,109.70
2019-02-23T16:59:46.704Z,106.75
2019-02-23T17:02:16.591Z,97.37
2019-02-23T17:04:52.959Z,92.02
2019-02-23T17:07:14.937Z,85.50
2019-02-23T17:09:43.199Z,79.72
2019-02-23T17:12:11.779Z,82.92
2019-02-23T17:14:40.033Z,81.90
2019-02-23T17:17:08.287Z,83.22
2019-02-23T17:19:36.562Z,108.07
2019-02-23T17:22:04.838Z,100.10
2019-02-23T17:24:33.153Z,117.95
2019-02-23T17:27:01.415Z,137.60
2019-02-23T17:29:29.734Z,134.37
2019-02-23T17:31:58.022Z,162.95
2019-02-23T17:34:26.286Z,138.72
2019-02-23T17:36:56.206Z,99.25
2019-02-23T17:39:26.112Z,122.40
2019-02-23T17:41:54.400Z,111.80
2019-02-23T17:44:24.277Z,114.08
2019-02-23T17:46:54.198Z,111.00
2019-02-23T17:49:22.486Z,97.17
2019-02-23T17:51:50.758Z,103.67
2019-02-23T17:54:19.054Z,104.78
2019-02-23T17:56:47.348Z,98.97
2019-02-23T17:59:15.658Z,104.27
2019-02-23T18:01:43.919Z,102.87
2019-02-23T18:04:12.210Z,99.58
2019-02-23T18:06:40.492Z,104.72
2019-02-23T18:09:08.768Z,130.50
2019-02-23T18:11:37.047Z,137.77
2019-02-23T18:14:05.332Z,133.07
2019-02-23T18:16:33.610Z,129.90
2019-02-23T18:19:02.962Z,119.90
2019-02-23T18:21:31.255Z,126.90
2019-02-23T18:23:59.521Z,127.17
2019-02-23T18:26:27.812Z,122.72
2019-02-23T18:28:56.109Z,125.78
2019-02-23T18:31:24.388Z,136.62
2019-02-23T18:33:52.679Z,190.92
2019-02-23T18:36:20.987Z,209.83
2019-02-23T18:38:49.243Z,208.65
2019-02-23T18:41:17.506Z,234.62
2019-02-23T18:43:45.799Z,227.55
2019-02-23T18:46:14.094Z,230.25
2019-02-23T18:48:42.404Z,255.77
2019-02-23T18:51:10.671Z,277.77
2019-02-23T18:53:38.967Z,313.18
2019-02-23T18:56:07.236Z,383.23
2019-02-23T18:58:35.534Z,491.73
2019-02-23T19:01:03.807Z,568.40
2019-02-23T19:03:32.097Z,539.05
2019-02-23T19:06:00.362Z,427.85
2019-02-23T19:08:28.647Z,358.68
2019-02-23T19:10:57.211Z,361.12
2019-02-23T19:13:25.501Z,373.62
2019-02-23T19:15:53.775Z,544.20
2019-02-23T19:18:22.073Z,496.30
2019-02-23T19:20:50.365Z,493.27
2019-02-23T19:23:18.634Z,475.32
2019-02-23T19:25:46.914Z,443.17
2019-02-23T19:28:15.209Z,379.43
2019-02-23T19:30:43.489Z,393.50
2019-02-23T19:33:11.795Z,395.50
2019-02-23T19:35:40.068Z,384.57
2019-02-23T19:38:08.355Z,377.20
2019-02-23T19:40:36.657Z,316.60
2019-02-23T19:43:04.966Z,270.17
2019-02-23T19:45:33.242Z,244.32
2019-02-23T19:48:01.543Z,252.80
2019-02-23T19:50:33.076Z,294.27
2019-02-23T19:53:01.369Z,481.75
2019-02-23T19:55:29.683Z,406.40
2019-02-23T19:57:57.954Z,450.75
2019-02-23T20:00:26.383Z,454.27
2019-02-23T20:02:54.665Z,432.27
2019-02-23T20:05:22.964Z,337.85
2019-02-23T20:07:52.659Z,271.40
2019-02-23T20:10:21.092Z,240.70
2019-02-23T20:12:49.388Z,229.47
2019-02-23T20:15:17.682Z,232.22
2019-02-23T20:17:45.969Z,238.12
2019-02-23T20:20:14.578Z,252.85
2019-02-23T20:22:42.844Z,357.02
2019-02-23T20:25:11.142Z,316.15
2019-02-23T20:27:39.410Z,367.98
2019-02-23T20:30:09.956Z,379.77
2019-02-23T20:32:38.227Z,371.20
2019-02-23T20:35:08.145Z,378.10
2019-02-23T20:37:36.427Z,406.52
2019-02-23T20:40:07.058Z,437.30
2019-02-23T20:42:35.326Z,435.13
2019-02-23T20:45:04.609Z,429.20
2019-02-23T20:47:35.281Z,417.98
2019-02-23T20:50:05.321Z,396.15
2019-02-23T20:52:33.591Z,407.40
2019-02-23T20:55:01.879Z,420.30
2019-02-23T20:57:36.742Z,431.05
2019-02-23T21:00:11.309Z,413.93
2019-02-23T21:02:39.888Z,403.18
2019-02-23T21:05:13.026Z,412.82
2019-02-23T21:07:41.330Z,398.18
2019-02-23T21:10:10.104Z,395.42
2019-02-23T21:12:38.389Z,400.00
2019-02-23T21:15:08.933Z,415.73
2019-02-23T21:17:37.231Z,443.57
2019-02-23T21:20:07.742Z,469.07
2019-02-23T21:22:36.030Z,462.55
2019-02-23T21:25:05.947Z,467.65
2019-02-23T21:27:34.245Z,475.18
2019-02-23T21:30:02.527Z,508.05
2019-02-23T21:32:30.798Z,527.40
2019-02-23T21:34:59.094Z,600.60
2019-02-23T21:37:27.359Z,564.73
2019-02-23T21:39:55.658Z,517.48
2019-02-23T21:42:23.960Z,497.73
2019-02-23T21:44:52.242Z,576.25
2019-02-23T21:47:20.526Z,573.15
2019-02-23T21:49:48.814Z,577.55
2019-02-23T21:52:17.084Z,604.83
2019-02-23T21:54:45.401Z,619.95
2019-02-23T21:57:21.802Z,644.92
2019-02-23T21:59:43.707Z,617.90
2019-02-23T22:02:12.094Z,624.75
2019-02-23T22:04:40.399Z,635.40
2019-02-23T22:07:08.675Z,649.20
2019-02-23T22:09:36.956Z,735.00
2019-02-23T22:12:05.242Z,872.08
2019-02-23T22:14:33.522Z,821.65
2019-02-23T22:17:08.106Z,820.27
2019-02-23T22:19:36.222Z,811.50
2019-02-23T22:22:04.535Z,809.52
2019-02-23T22:24:32.805Z,794.95
2019-02-23T22:27:01.104Z,790.88
2019-02-23T22:29:29.466Z,809.35
2019-02-23T22:31:57.696Z,815.83
2019-02-23T22:34:26.004Z,792.45
2019-02-23T22:36:54.273Z,860.67
2019-02-23T22:39:22.555Z,788.45
2019-02-23T22:41:50.828Z,684.42
2019-02-23T22:44:19.110Z,703.70
2019-02-23T22:46:47.396Z,720.08
2019-02-23T22:49:15.701Z,1030.55
2019-02-23T22:51:43.983Z,1146.63
2019-02-23T22:54:12.538Z,934.92
2019-02-23T22:56:40.812Z,808.58
2019-02-23T22:59:09.099Z,779.48
2019-02-23T23:01:37.429Z,691.55
2019-02-23T23:04:05.696Z,714.78
2019-02-23T23:06:40.646Z,638.98
2019-02-23T23:09:10.595Z,696.65
2019-02-23T23:11:38.876Z,635.78
2019-02-23T23:14:07.182Z,692.33
2019-02-23T23:16:35.488Z,841.47
2019-02-23T23:19:03.786Z,844.80
2019-02-23T23:21:32.364Z,858.95
2019-02-23T23:24:00.647Z,868.28
2019-02-23T23:26:28.930Z,886.45
2019-02-23T23:28:57.206Z,849.87
2019-02-23T23:31:25.506Z,856.47
2019-02-23T23:33:53.774Z,859.98
2019-02-23T23:36:22.075Z,868.13
2019-02-23T23:38:50.357Z,896.45
2019-02-23T23:41:18.695Z,900.90
2019-02-23T23:43:46.956Z,848.60
2019-02-23T23:46:15.224Z,844.63
2019-02-23T23:48:43.510Z,844.92
2019-02-23T23:51:11.786Z,758.25
2019-02-23T23:53:40.087Z,707.47
2019-02-23T23:56:08.356Z,717.77
2019-02-23T23:58:36.665Z,698.08
